createdAt,value
2023-03-08T00:02:53.282Z,99196.44
2023-03-08T00:07:56.890Z,99204.13
2023-03-08T00:13:01.738Z,99206.28
2023-03-08T00:18:05.487Z,99207.31
2023-03-08T00:23:10.371Z,99212.63
2023-03-08T00:28:15.222Z,99217.19
2023-03-08T00:33:18.636Z,99229.34
2023-03-08T00:38:22.049Z,99223.44
2023-03-08T00:43:27.092Z,99217.22
2023-03-08T00:48:31.523Z,99216.78
2023-03-08T00:53:35.700Z,99228.41
2023-03-08T00:58:41.896Z,99226.53
2023-03-08T01:03:45.598Z,99235.88
2023-03-08T01:08:49.142Z,99234.00
2023-03-08T01:13:55.795Z,99232.31
2023-03-08T01:19:00.606Z,99229.06
2023-03-08T01:24:06.059Z,99220.66
2023-03-08T01:29:11.101Z,99215.19
2023-03-08T01:34:14.870Z,99212.00
2023-03-08T01:39:18.445Z,99209.72
2023-03-08T01:44:23.674Z,99214.94
2023-03-08T01:49:30.137Z,99204.81
2023-03-08T01:54:38.644Z,99204.94
2023-03-08T01:59:44.105Z,99193.34
2023-03-08T02:04:47.787Z,99196.34
2023-03-08T02:09:51.683Z,99194.53
2023-03-08T02:14:57.266Z,99188.59
2023-03-08T02:25:15.739Z,99182.50
2023-03-08T02:30:24.735Z,99186.22
2023-03-08T02:35:28.450Z,99183.91
2023-03-08T02:40:33.329Z,99189.19
2023-03-08T02:45:36.823Z,99184.16
2023-03-08T02:50:40.309Z,99180.19
2023-03-08T02:55:46.210Z,99168.00
2023-03-08T03:00:50.379Z,99169.06
2023-03-08T03:05:54.425Z,99168.53
2023-03-08T03:11:13.580Z,99174.03
2023-03-08T03:16:17.964Z,99173.97
2023-03-08T03:21:22.111Z,99177.53
2023-03-08T03:26:27.572Z,99189.34
2023-03-08T03:31:33.368Z,99170.41
2023-03-08T03:36:37.704Z,99168.28
2023-03-08T03:41:43.030Z,99176.63
2023-03-08T03:46:49.451Z,99173.97
2023-03-08T03:51:58.917Z,99179.44
2023-03-08T03:57:10.937Z,99181.66
2023-03-08T04:02:17.649Z,99176.91
2023-03-08T04:07:28.234Z,99177.44
2023-03-08T04:12:35.888Z,99171.66
2023-03-08T04:17:39.484Z,99173.41
2023-03-08T04:22:43.243Z,99182.09
2023-03-08T04:27:56.603Z,99181.19
2023-03-08T04:33:00.476Z,99172.19
2023-03-08T04:38:12.125Z,99166.88
2023-03-08T04:43:18.050Z,99176.03
2023-03-08T04:48:21.761Z,99185.97
2023-03-08T04:53:25.604Z,99172.16
2023-03-08T04:58:31.348Z,99169.53
2023-03-08T05:03:35.657Z,99185.84
2023-03-08T05:08:39.220Z,99173.78
2023-03-08T05:13:44.933Z,99166.53
2023-03-08T05:18:48.830Z,99177.38
2023-03-08T05:23:54.557Z,99159.19
2023-03-08T05:29:03.349Z,99149.66
2023-03-08T05:34:08.035Z,99146.16
2023-03-08T05:39:13.559Z,99139.44
2023-03-08T05:44:40.531Z,99134.66
2023-03-08T05:49:46.210Z,99118.94
2023-03-08T05:54:50.434Z,99120.81
2023-03-08T05:59:57.743Z,99128.69
2023-03-08T06:05:02.188Z,99133.66
2023-03-08T06:10:07.474Z,99124.25
2023-03-08T06:15:13.452Z,99131.28
2023-03-08T06:20:18.029Z,99148.50
2023-03-08T06:25:24.840Z,99144.41
2023-03-08T06:30:30.145Z,99140.44
2023-03-08T06:35:34.583Z,99139.84
2023-03-08T06:40:39.686Z,99136.38
2023-03-08T06:45:44.899Z,99134.63
2023-03-08T06:50:49.233Z,99138.00
2023-03-08T06:55:53.613Z,99130.44
2023-03-08T07:01:00.003Z,99123.66
2023-03-08T07:06:05.175Z,99119.09
2023-03-08T07:11:09.767Z,99122.81
2023-03-08T07:16:15.059Z,99114.44
2023-03-08T07:21:18.757Z,99107.28
2023-03-08T07:26:22.150Z,99097.00
2023-03-08T07:31:29.312Z,99091.13
2023-03-08T07:36:33.683Z,99092.97
2023-03-08T07:41:37.172Z,99079.47
2023-03-08T07:46:42.360Z,99079.44
2023-03-08T07:51:45.901Z,99070.94
2023-03-08T07:56:49.648Z,99069.41
2023-03-08T08:01:54.648Z,99063.75
2023-03-08T08:06:59.233Z,99071.28
2023-03-08T08:12:02.725Z,99056.59
2023-03-08T08:17:10.270Z,99064.06
2023-03-08T08:22:13.798Z,99068.25
2023-03-08T08:27:17.312Z,99059.44
2023-03-08T08:32:22.245Z,99067.59
2023-03-08T08:37:25.784Z,99062.88
2023-03-08T08:42:29.453Z,99060.25
2023-03-08T08:47:34.391Z,99060.94
2023-03-08T08:52:37.997Z,99063.69
2023-03-08T08:57:41.540Z,99048.28
2023-03-08T09:02:46.843Z,99035.03
2023-03-08T09:07:50.712Z,99036.00
2023-03-08T09:12:54.400Z,99027.53
2023-03-08T09:17:59.597Z,99018.53
2023-03-08T09:23:03.123Z,99018.16
2023-03-08T09:28:06.761Z,99009.84
2023-03-08T09:33:11.809Z,98995.25
2023-03-08T09:38:15.377Z,98990.13
2023-03-08T09:43:22.636Z,98975.09
2023-03-08T09:48:31.759Z,98969.59
2023-03-08T09:53:54.670Z,98957.31
2023-03-08T09:59:00.871Z,98949.00
2023-03-08T10:04:15.949Z,98935.84
2023-03-08T10:09:28.864Z,98928.25
2023-03-08T10:14:34.327Z,98923.97
2023-03-08T10:19:41.773Z,98918.75
2023-03-08T10:24:51.877Z,98908.16
2023-03-08T10:29:57.595Z,98899.03
2023-03-08T10:35:07.006Z,98897.00
2023-03-08T10:40:13.896Z,98886.00
2023-03-08T10:45:21.964Z,98885.16
2023-03-08T10:50:29.123Z,98875.81
2023-03-08T10:55:41.818Z,98875.19
2023-03-08T11:00:45.669Z,98867.56
2023-03-08T11:05:56.822Z,98864.81
2023-03-08T11:11:08.556Z,98869.13
2023-03-08T11:16:43.812Z,98868.06
2023-03-08T11:21:54.411Z,98862.13
2023-03-08T11:27:10.465Z,98863.25
2023-03-08T11:32:29.252Z,98854.19
2023-03-08T11:37:38.296Z,98861.50
2023-03-08T11:42:47.408Z,98854.97
2023-03-08T11:48:05.242Z,98861.69
2023-03-08T11:53:18.441Z,98851.47
2023-03-08T11:58:27.292Z,98850.16
2023-03-08T12:03:34.325Z,98841.91
2023-03-08T12:08:42.787Z,98852.59
2023-03-08T12:13:48.815Z,98842.59
2023-03-08T12:18:56.347Z,98839.28
2023-03-08T12:24:15.635Z,98848.66
2023-03-08T12:29:23.963Z,98839.81
2023-03-08T12:34:29.935Z,98826.41
2023-03-08T12:39:36.665Z,98833.50
2023-03-08T12:44:41.018Z,98842.31
2023-03-08T12:49:47.024Z,98830.00
2023-03-08T12:54:59.266Z,98824.78
2023-03-08T13:00:06.731Z,98805.06
2023-03-08T13:05:22.158Z,98808.16
2023-03-08T13:10:30.969Z,98824.88
2023-03-08T13:15:34.562Z,98817.53
2023-03-08T13:20:58.849Z,98813.47
2023-03-08T13:26:17.632Z,98805.41
2023-03-08T13:31:22.319Z,98804.84
2023-03-08T13:36:27.307Z,98807.63
2023-03-08T13:41:39.820Z,98809.66
2023-03-08T13:46:43.900Z,98816.94
2023-03-08T13:51:50.292Z,98820.34
2023-03-08T13:56:55.304Z,98809.72
2023-03-08T14:01:58.887Z,98811.28
2023-03-08T14:07:02.402Z,98804.19
2023-03-08T14:12:08.465Z,98798.81
2023-03-08T14:17:20.926Z,98797.53
2023-03-08T14:22:38.166Z,98785.41
2023-03-08T14:27:45.418Z,98792.34
2023-03-08T14:33:22.021Z,98787.47
2023-03-08T14:38:29.692Z,98788.44
2023-03-08T14:43:34.683Z,98786.47
2023-03-08T14:48:39.189Z,98776.38
2023-03-08T14:53:42.956Z,98771.28
2023-03-08T14:58:50.581Z,98757.44
2023-03-08T15:03:54.107Z,98749.06
2023-03-08T15:08:58.314Z,98741.88
2023-03-08T15:14:03.335Z,98724.44
2023-03-08T15:19:07.171Z,98729.41
2023-03-08T15:24:17.342Z,98713.38
2023-03-08T15:29:26.712Z,98728.34
2023-03-08T15:34:30.361Z,98718.63
2023-03-08T15:39:33.885Z,98711.84
2023-03-08T15:44:38.964Z,98710.63
2023-03-08T15:49:43.141Z,98714.19
2023-03-08T15:54:49.858Z,98717.25
2023-03-08T15:59:54.729Z,98725.16
2023-03-08T16:04:58.241Z,98721.00
2023-03-08T16:10:02.525Z,98726.13
2023-03-08T16:15:09.626Z,98727.53
2023-03-08T16:20:15.014Z,98744.69
2023-03-08T16:25:19.627Z,98733.19
2023-03-08T16:30:24.742Z,98734.69
2023-03-08T16:35:28.203Z,98740.25
2023-03-08T16:40:33.328Z,98734.44
2023-03-08T16:45:38.567Z,98731.81
2023-03-08T16:50:42.561Z,98745.78
2023-03-08T16:55:46.512Z,98742.44
2023-03-08T17:00:51.441Z,98730.72
2023-03-08T17:05:54.988Z,98744.66
2023-03-08T17:10:58.475Z,98734.72
2023-03-08T17:16:03.480Z,98735.53
2023-03-08T17:21:07.569Z,98753.31
2023-03-08T17:26:12.357Z,98750.34
2023-03-08T17:31:20.890Z,98741.47
2023-03-08T17:36:26.845Z,98747.34
2023-03-08T17:41:32.368Z,98751.56
2023-03-08T17:46:37.583Z,98742.16
2023-03-08T17:51:42.501Z,98738.22
2023-03-08T17:56:46.492Z,98737.38
2023-03-08T18:01:51.302Z,98719.91
2023-03-08T18:06:54.936Z,98727.66
2023-03-08T18:11:58.880Z,98718.28
2023-03-08T18:17:04.176Z,98710.53
2023-03-08T18:22:07.694Z,98707.28
2023-03-08T18:27:11.280Z,98720.84
2023-03-08T18:32:16.142Z,98717.66
2023-03-08T18:37:19.676Z,98716.06
2023-03-08T18:42:23.115Z,98718.53
2023-03-08T18:47:27.989Z,98704.47
2023-03-08T18:52:31.678Z,98714.94
2023-03-08T18:57:35.177Z,98710.84
2023-03-08T19:02:40.234Z,98718.53
2023-03-08T19:07:43.815Z,98713.78
2023-03-08T19:12:47.271Z,98704.63
2023-03-08T19:17:55.250Z,98697.28
2023-03-08T19:22:58.752Z,98689.50
2023-03-08T19:28:02.411Z,98686.16
2023-03-08T19:33:07.674Z,98689.56
2023-03-08T19:38:11.396Z,98688.25
2023-03-08T19:43:14.867Z,98700.16
2023-03-08T19:48:19.796Z,98691.66
2023-03-08T19:53:23.428Z,98687.94
2023-03-08T19:58:27.791Z,98691.38
2023-03-08T20:03:32.754Z,98689.69
2023-03-08T20:08:38.213Z,98691.94
2023-03-08T20:13:41.674Z,98689.31
2023-03-08T20:18:49.105Z,98692.53
2023-03-08T20:23:55.454Z,98689.66
2023-03-08T20:28:59.897Z,98694.31
2023-03-08T20:34:04.984Z,98698.09
2023-03-08T20:39:08.629Z,98700.78
2023-03-08T20:44:12.540Z,98707.78
2023-03-08T20:49:17.616Z,98719.22
2023-03-08T20:54:21.171Z,98689.91
2023-03-08T20:59:26.798Z,98704.28
2023-03-08T21:04:32.228Z,98710.97
2023-03-08T21:09:35.980Z,98688.97
2023-03-08T21:14:39.425Z,98669.28
2023-03-08T21:19:44.358Z,98664.97
2023-03-08T21:24:47.937Z,98656.94
2023-03-08T21:29:51.681Z,98660.91
2023-03-08T21:34:59.743Z,98672.03
2023-03-08T21:40:05.415Z,98665.06
2023-03-08T21:45:10.054Z,98642.59
2023-03-08T21:50:14.984Z,98626.47
2023-03-08T21:55:19.454Z,98612.97
2023-03-08T22:00:23.128Z,98621.44
2023-03-08T22:05:28.022Z,98612.75
2023-03-08T22:10:31.443Z,98619.38
2023-03-08T22:15:34.882Z,98618.03
2023-03-08T22:20:39.911Z,98608.31
2023-03-08T22:25:43.377Z,98600.75
2023-03-08T22:30:46.929Z,98590.63
2023-03-08T22:35:51.737Z,98588.28
2023-03-08T22:40:55.178Z,98581.97
2023-03-08T22:46:07.031Z,98577.59
2023-03-08T22:51:12.216Z,98565.41
2023-03-08T22:56:20.158Z,98566.41
2023-03-08T23:01:25.624Z,98570.47
2023-03-08T23:06:31.545Z,98576.25
2023-03-08T23:11:36.413Z,98575.72
2023-03-08T23:16:41.781Z,98578.31
2023-03-08T23:21:46.908Z,98573.00
2023-03-08T23:26:50.402Z,98580.13
2023-03-08T23:31:53.941Z,98575.44
2023-03-08T23:36:59.572Z,98571.28
2023-03-08T23:42:02.996Z,98564.22
2023-03-08T23:47:06.891Z,98565.31
2023-03-08T23:52:11.798Z,98566.66
2023-03-08T23:57:15.333Z,98570.47
